sensor_id;sensor_type;location;lat;lon;timestamp;temperature;humidity
5429;DHT22;2737;52.386;9.980;2024-01-30T00:01:23;3.90;99.90
5429;DHT22;2737;52.386;9.980;2024-01-30T00:03:50;3.90;99.90
5429;DHT22;2737;52.386;9.980;2024-01-30T00:06:18;3.90;99.90
5429;DHT22;2737;52.386;9.980;2024-01-30T00:08:46;3.80;99.90
5429;DHT22;2737;52.386;9.980;2024-01-30T00:11:16;3.90;99.90
5429;DHT22;2737;52.386;9.980;2024-01-30T00:13:43;3.80;99.90
5429;DHT22;2737;52.386;9.980;2024-01-30T00:16:20;3.80;99.90
5429;DHT22;2737;52.386;9.980;2024-01-30T00:18:47;3.80;99.90
5429;DHT22;2737;52.386;9.980;2024-01-30T00:21:14;3.80;99.90
5429;DHT22;2737;52.386;9.980;2024-01-30T00:23:41;3.80;99.90
5429;DHT22;2737;52.386;9.980;2024-01-30T00:26:08;3.80;99.90
5429;DHT22;2737;52.386;9.980;2024-01-30T00:28:37;3.80;99.90
5429;DHT22;2737;52.386;9.980;2024-01-30T00:31:04;3.80;99.90
5429;DHT22;2737;52.386;9.980;2024-01-30T00:33:31;3.70;99.90
5429;DHT22;2737;52.386;9.980;2024-01-30T00:35:58;3.60;99.90
5429;DHT22;2737;52.386;9.980;2024-01-30T00:38:25;3.60;99.90
5429;DHT22;2737;52.386;9.980;2024-01-30T00:40:52;3.50;99.90
5429;DHT22;2737;52.386;9.980;2024-01-30T00:43:19;3.50;99.90
5429;DHT22;2737;52.386;9.980;2024-01-30T00:45:48;3.40;99.90
5429;DHT22;2737;52.386;9.980;2024-01-30T00:48:16;3.40;99.90
5429;DHT22;2737;52.386;9.980;2024-01-30T00:50:43;3.30;99.90
5429;DHT22;2737;52.386;9.980;2024-01-30T00:53:10;3.30;99.90
5429;DHT22;2737;52.386;9.980;2024-01-30T00:55:37;3.20;99.90
5429;DHT22;2737;52.386;9.980;2024-01-30T00:58:04;3.20;99.90
5429;DHT22;2737;52.386;9.980;2024-01-30T01:00:32;3.20;99.90
5429;DHT22;2737;52.386;9.980;2024-01-30T01:03:00;3.20;99.90
5429;DHT22;2737;52.386;9.980;2024-01-30T01:05:27;3.10;99.90
5429;DHT22;2737;52.386;9.980;2024-01-30T01:07:55;3.10;99.90
5429;DHT22;2737;52.386;9.980;2024-01-30T01:10:22;3.20;99.90
5429;DHT22;2737;52.386;9.980;2024-01-30T01:12:49;3.20;99.90
5429;DHT22;2737;52.386;9.980;2024-01-30T01:15:16;3.20;99.90
5429;DHT22;2737;52.386;9.980;2024-01-30T01:17:43;3.30;99.90
5429;DHT22;2737;52.386;9.980;2024-01-30T01:20:12;3.30;99.90
5429;DHT22;2737;52.386;9.980;2024-01-30T01:22:39;3.30;99.90
5429;DHT22;2737;52.386;9.980;2024-01-30T01:25:06;3.30;99.90
5429;DHT22;2737;52.386;9.980;2024-01-30T01:27:34;3.30;99.90
5429;DHT22;2737;52.386;9.980;2024-01-30T01:30:07;3.40;99.90
5429;DHT22;2737;52.386;9.980;2024-01-30T01:32:35;3.30;99.90
5429;DHT22;2737;52.386;9.980;2024-01-30T01:35:02;3.40;99.90
5429;DHT22;2737;52.386;9.980;2024-01-30T01:37:32;3.40;99.90
5429;DHT22;2737;52.386;9.980;2024-01-30T01:40:00;3.30;99.90
5429;DHT22;2737;52.386;9.980;2024-01-30T01:42:27;3.40;99.90
5429;DHT22;2737;52.386;9.980;2024-01-30T01:44:54;3.50;99.90
5429;DHT22;2737;52.386;9.980;2024-01-30T01:47:21;3.50;99.90
5429;DHT22;2737;52.386;9.980;2024-01-30T01:49:48;3.40;99.90
5429;DHT22;2737;52.386;9.980;2024-01-30T01:52:15;3.50;99.90
5429;DHT22;2737;52.386;9.980;2024-01-30T01:54:45;3.40;99.90
5429;DHT22;2737;52.386;9.980;2024-01-30T01:57:12;3.50;99.90
5429;DHT22;2737;52.386;9.980;2024-01-30T01:59:39;3.50;99.90
5429;DHT22;2737;52.386;9.980;2024-01-30T02:02:07;3.60;99.90
5429;DHT22;2737;52.386;9.980;2024-01-30T02:04:38;3.50;99.90
5429;DHT22;2737;52.386;9.980;2024-01-30T02:07:05;3.50;99.90
5429;DHT22;2737;52.386;9.980;2024-01-30T02:09:32;3.50;99.90
5429;DHT22;2737;52.386;9.980;2024-01-30T02:12:00;3.50;99.90
5429;DHT22;2737;52.386;9.980;2024-01-30T02:14:27;3.50;99.90
5429;DHT22;2737;52.386;9.980;2024-01-30T02:16:54;3.40;99.90
5429;DHT22;2737;52.386;9.980;2024-01-30T02:19:22;3.50;99.90
5429;DHT22;2737;52.386;9.980;2024-01-30T02:21:50;3.50;99.90
5429;DHT22;2737;52.386;9.980;2024-01-30T02:24:17;3.50;99.90
5429;DHT22;2737;52.386;9.980;2024-01-30T02:26:44;3.50;99.90
5429;DHT22;2737;52.386;9.980;2024-01-30T02:29:10;3.50;99.90
5429;DHT22;2737;52.386;9.980;2024-01-30T02:31:37;3.50;99.90
5429;DHT22;2737;52.386;9.980;2024-01-30T02:34:04;3.50;99.90
5429;DHT22;2737;52.386;9.980;2024-01-30T02:36:31;3.50;99.90
5429;DHT22;2737;52.386;9.980;2024-01-30T02:39:00;3.60;99.90
5429;DHT22;2737;52.386;9.980;2024-01-30T02:41:27;3.60;99.90
5429;DHT22;2737;52.386;9.980;2024-01-30T02:43:54;3.60;99.90
5429;DHT22;2737;52.386;9.980;2024-01-30T02:46:21;3.70;99.90
5429;DHT22;2737;52.386;9.980;2024-01-30T02:48:48;3.70;99.90
5429;DHT22;2737;52.386;9.980;2024-01-30T02:51:15;3.70;99.90
5429;DHT22;2737;52.386;9.980;2024-01-30T02:53:42;3.70;99.90
5429;DHT22;2737;52.386;9.980;2024-01-30T02:56:11;3.70;99.90
5429;DHT22;2737;52.386;9.980;2024-01-30T02:58:39;3.70;99.90
5429;DHT22;2737;52.386;9.980;2024-01-30T03:01:06;3.70;99.90
5429;DHT22;2737;52.386;9.980;2024-01-30T03:03:33;3.70;99.90
5429;DHT22;2737;52.386;9.980;2024-01-30T03:06:01;3.70;99.90
5429;DHT22;2737;52.386;9.980;2024-01-30T03:08:28;3.70;99.90
5429;DHT22;2737;52.386;9.980;2024-01-30T03:10:55;3.70;99.90
5429;DHT22;2737;52.386;9.980;2024-01-30T03:13:24;3.70;99.90
5429;DHT22;2737;52.386;9.980;2024-01-30T03:15:51;3.70;99.90
5429;DHT22;2737;52.386;9.980;2024-01-30T03:18:18;3.70;99.90
5429;DHT22;2737;52.386;9.980;2024-01-30T03:20:45;3.70;99.90
5429;DHT22;2737;52.386;9.980;2024-01-30T03:23:12;3.60;99.90
5429;DHT22;2737;52.386;9.980;2024-01-30T03:25:39;3.60;99.90
5429;DHT22;2737;52.386;9.980;2024-01-30T03:28:06;3.60;99.90
5429;DHT22;2737;52.386;9.980;2024-01-30T03:30:35;3.60;99.90
5429;DHT22;2737;52.386;9.980;2024-01-30T03:33:03;3.60;99.90
5429;DHT22;2737;52.386;9.980;2024-01-30T03:35:30;3.60;99.90
5429;DHT22;2737;52.386;9.980;2024-01-30T03:37:57;3.60;99.90
5429;DHT22;2737;52.386;9.980;2024-01-30T03:40:24;3.50;99.90
5429;DHT22;2737;52.386;9.980;2024-01-30T03:42:51;3.50;99.90
5429;DHT22;2737;52.386;9.980;2024-01-30T03:45:18;3.50;99.90
5429;DHT22;2737;52.386;9.980;2024-01-30T03:47:47;3.50;99.90
5429;DHT22;2737;52.386;9.980;2024-01-30T03:50:14;3.50;99.90
5429;DHT22;2737;52.386;9.980;2024-01-30T03:52:41;3.50;99.90
5429;DHT22;2737;52.386;9.980;2024-01-30T03:55:08;3.50;99.90
5429;DHT22;2737;52.386;9.980;2024-01-30T03:57:35;3.50;99.90
5429;DHT22;2737;52.386;9.980;2024-01-30T04:00:03;3.40;99.90
5429;DHT22;2737;52.386;9.980;2024-01-30T04:02:31;3.40;99.90
5429;DHT22;2737;52.386;9.980;2024-01-30T04:04:59;3.40;99.90
5429;DHT22;2737;52.386;9.980;2024-01-30T04:07:26;3.40;99.90
5429;DHT22;2737;52.386;9.980;2024-01-30T04:09:54;3.40;99.90
5429;DHT22;2737;52.386;9.980;2024-01-30T04:12:21;3.40;99.90
5429;DHT22;2737;52.386;9.980;2024-01-30T04:14:48;3.40;99.90
5429;DHT22;2737;52.386;9.980;2024-01-30T04:17:15;3.40;99.90
5429;DHT22;2737;52.386;9.980;2024-01-30T04:19:42;3.50;99.90
5429;DHT22;2737;52.386;9.980;2024-01-30T04:22:11;3.40;99.90
5429;DHT22;2737;52.386;9.980;2024-01-30T04:24:38;3.40;99.90
5429;DHT22;2737;52.386;9.980;2024-01-30T04:27:05;3.40;99.90
5429;DHT22;2737;52.386;9.980;2024-01-30T04:29:32;3.30;99.90
5429;DHT22;2737;52.386;9.980;2024-01-30T04:31:59;3.30;99.90
5429;DHT22;2737;52.386;9.980;2024-01-30T04:34:26;3.30;99.90
5429;DHT22;2737;52.386;9.980;2024-01-30T04:36:53;3.30;99.90
5429;DHT22;2737;52.386;9.980;2024-01-30T04:39:22;3.30;99.90
5429;DHT22;2737;52.386;9.980;2024-01-30T04:41:49;3.30;99.90
5429;DHT22;2737;52.386;9.980;2024-01-30T04:44:16;3.30;99.90
5429;DHT22;2737;52.386;9.980;2024-01-30T04:46:43;3.20;99.90
5429;DHT22;2737;52.386;9.980;2024-01-30T04:49:10;3.20;99.90
5429;DHT22;2737;52.386;9.980;2024-01-30T04:51:37;3.20;99.90
5429;DHT22;2737;52.386;9.980;2024-01-30T04:54:04;3.20;99.90
5429;DHT22;2737;52.386;9.980;2024-01-30T04:56:32;3.20;99.90
5429;DHT22;2737;52.386;9.980;2024-01-30T04:59:00;3.20;99.90
5429;DHT22;2737;52.386;9.980;2024-01-30T05:01:27;3.10;99.90
5429;DHT22;2737;52.386;9.980;2024-01-30T05:03:54;3.10;99.90
5429;DHT22;2737;52.386;9.980;2024-01-30T05:06:27;3.20;99.90
5429;DHT22;2737;52.386;9.980;2024-01-30T05:08:54;3.30;99.90
5429;DHT22;2737;52.386;9.980;2024-01-30T05:11:21;3.40;99.90
5429;DHT22;2737;52.386;9.980;2024-01-30T05:13:49;3.40;99.90
5429;DHT22;2737;52.386;9.980;2024-01-30T05:16:16;3.50;99.90
5429;DHT22;2737;52.386;9.980;2024-01-30T05:18:43;3.40;99.90
5429;DHT22;2737;52.386;9.980;2024-01-30T05:21:10;3.40;99.90
5429;DHT22;2737;52.386;9.980;2024-01-30T05:23:37;3.40;99.90
5429;DHT22;2737;52.386;9.980;2024-01-30T05:26:05;3.40;99.90
5429;DHT22;2737;52.386;9.980;2024-01-30T05:28:32;3.40;99.90
5429;DHT22;2737;52.386;9.980;2024-01-30T05:31:00;3.40;99.90
5429;DHT22;2737;52.386;9.980;2024-01-30T05:33:28;3.50;99.90
5429;DHT22;2737;52.386;9.980;2024-01-30T05:35:55;3.40;99.90
5429;DHT22;2737;52.386;9.980;2024-01-30T05:38:22;3.50;99.90
5429;DHT22;2737;52.386;9.980;2024-01-30T05:40:49;3.50;99.90
5429;DHT22;2737;52.386;9.980;2024-01-30T05:43:16;3.50;99.90
5429;DHT22;2737;52.386;9.980;2024-01-30T05:45:43;3.50;99.90
5429;DHT22;2737;52.386;9.980;2024-01-30T05:48:11;3.50;99.90
5429;DHT22;2737;52.386;9.980;2024-01-30T05:50:38;3.50;99.90
5429;DHT22;2737;52.386;9.980;2024-01-30T05:53:05;3.50;99.90
5429;DHT22;2737;52.386;9.980;2024-01-30T05:55:32;3.50;99.90
5429;DHT22;2737;52.386;9.980;2024-01-30T05:57:59;3.40;99.90
5429;DHT22;2737;52.386;9.980;2024-01-30T06:00:26;3.40;99.90
5429;DHT22;2737;52.386;9.980;2024-01-30T06:02:53;3.50;99.90
5429;DHT22;2737;52.386;9.980;2024-01-30T06:05:22;3.40;99.90
5429;DHT22;2737;52.386;9.980;2024-01-30T06:07:49;3.40;99.90
5429;DHT22;2737;52.386;9.980;2024-01-30T06:10:16;3.50;99.90
5429;DHT22;2737;52.386;9.980;2024-01-30T06:12:43;3.50;99.90
5429;DHT22;2737;52.386;9.980;2024-01-30T06:15:10;3.50;99.90
5429;DHT22;2737;52.386;9.980;2024-01-30T06:17:38;3.50;99.90
5429;DHT22;2737;52.386;9.980;2024-01-30T06:20:06;3.50;99.90
5429;DHT22;2737;52.386;9.980;2024-01-30T06:22:35;3.50;99.90
5429;DHT22;2737;52.386;9.980;2024-01-30T06:25:02;3.50;99.90
5429;DHT22;2737;52.386;9.980;2024-01-30T06:27:29;3.50;99.90
5429;DHT22;2737;52.386;9.980;2024-01-30T06:29:56;3.50;99.90
5429;DHT22;2737;52.386;9.980;2024-01-30T06:32:23;3.50;99.90
5429;DHT22;2737;52.386;9.980;2024-01-30T06:34:50;3.40;99.90
5429;DHT22;2737;52.386;9.980;2024-01-30T06:37:17;3.50;99.90
5429;DHT22;2737;52.386;9.980;2024-01-30T06:39:46;3.50;99.90
5429;DHT22;2737;52.386;9.980;2024-01-30T06:42:13;3.40;99.90
5429;DHT22;2737;52.386;9.980;2024-01-30T06:44:40;3.40;99.90
5429;DHT22;2737;52.386;9.980;2024-01-30T06:47:07;3.50;99.90
5429;DHT22;2737;52.386;9.980;2024-01-30T06:49:33;3.40;99.90
5429;DHT22;2737;52.386;9.980;2024-01-30T06:52:00;3.50;99.90
5429;DHT22;2737;52.386;9.980;2024-01-30T06:54:27;3.50;99.90
5429;DHT22;2737;52.386;9.980;2024-01-30T06:56:55;3.50;99.90
5429;DHT22;2737;52.386;9.980;2024-01-30T06:59:22;3.50;99.90
5429;DHT22;2737;52.386;9.980;2024-01-30T07:01:49;3.50;99.90
5429;DHT22;2737;52.386;9.980;2024-01-30T07:04:16;3.50;99.90
5429;DHT22;2737;52.386;9.980;2024-01-30T07:06:44;3.50;99.90
5429;DHT22;2737;52.386;9.980;2024-01-30T07:09:11;3.50;99.90
5429;DHT22;2737;52.386;9.980;2024-01-30T07:11:39;3.50;99.90
5429;DHT22;2737;52.386;9.980;2024-01-30T07:14:08;3.50;99.90
5429;DHT22;2737;52.386;9.980;2024-01-30T07:16:35;3.50;99.90
5429;DHT22;2737;52.386;9.980;2024-01-30T07:19:03;3.50;99.90
5429;DHT22;2737;52.386;9.980;2024-01-30T07:21:30;3.70;99.90
5429;DHT22;2737;52.386;9.980;2024-01-30T07:23:57;3.70;99.90
5429;DHT22;2737;52.386;9.980;2024-01-30T07:26:24;3.80;99.90
5429;DHT22;2737;52.386;9.980;2024-01-30T07:28:51;3.90;99.90
5429;DHT22;2737;52.386;9.980;2024-01-30T07:31:19;3.80;99.90
5429;DHT22;2737;52.386;9.980;2024-01-30T07:33:48;3.80;99.90
5429;DHT22;2737;52.386;9.980;2024-01-30T07:36:15;3.80;99.90
5429;DHT22;2737;52.386;9.980;2024-01-30T07:38:42;3.80;99.90
5429;DHT22;2737;52.386;9.980;2024-01-30T07:41:09;3.80;99.90
5429;DHT22;2737;52.386;9.980;2024-01-30T07:43:38;3.80;99.90
5429;DHT22;2737;52.386;9.980;2024-01-30T07:46:05;3.80;99.90
5429;DHT22;2737;52.386;9.980;2024-01-30T07:48:36;3.80;99.90
5429;DHT22;2737;52.386;9.980;2024-01-30T07:51:04;3.80;99.90
5429;DHT22;2737;52.386;9.980;2024-01-30T07:53:31;3.90;99.90
5429;DHT22;2737;52.386;9.980;2024-01-30T07:55:58;3.90;99.90
5429;DHT22;2737;52.386;9.980;2024-01-30T07:58:25;3.90;99.90
5429;DHT22;2737;52.386;9.980;2024-01-30T08:00:53;4.00;99.90
5429;DHT22;2737;52.386;9.980;2024-01-30T08:03:20;4.00;99.90
5429;DHT22;2737;52.386;9.980;2024-01-30T08:05:48;4.00;99.90
5429;DHT22;2737;52.386;9.980;2024-01-30T08:08:15;4.10;99.90
5429;DHT22;2737;52.386;9.980;2024-01-30T08:10:42;4.10;99.90
5429;DHT22;2737;52.386;9.980;2024-01-30T08:13:09;4.20;99.90
5429;DHT22;2737;52.386;9.980;2024-01-30T08:15:36;4.20;99.90
5429;DHT22;2737;52.386;9.980;2024-01-30T08:18:03;4.30;99.90
5429;DHT22;2737;52.386;9.980;2024-01-30T08:20:32;4.30;99.90
5429;DHT22;2737;52.386;9.980;2024-01-30T08:23:00;4.40;99.90
5429;DHT22;2737;52.386;9.980;2024-01-30T08:25:27;4.40;99.90
5429;DHT22;2737;52.386;9.980;2024-01-30T08:27:55;4.50;99.90
5429;DHT22;2737;52.386;9.980;2024-01-30T08:30:22;4.50;99.90
5429;DHT22;2737;52.386;9.980;2024-01-30T08:32:49;4.60;99.90
5429;DHT22;2737;52.386;9.980;2024-01-30T08:35:17;4.60;99.90
5429;DHT22;2737;52.386;9.980;2024-01-30T08:37:44;4.70;99.90
5429;DHT22;2737;52.386;9.980;2024-01-30T08:40:13;4.70;99.90
5429;DHT22;2737;52.386;9.980;2024-01-30T08:42:40;4.80;99.90
5429;DHT22;2737;52.386;9.980;2024-01-30T08:45:07;4.90;99.90
5429;DHT22;2737;52.386;9.980;2024-01-30T08:47:34;4.90;99.90
5429;DHT22;2737;52.386;9.980;2024-01-30T08:50:02;5.00;99.90
5429;DHT22;2737;52.386;9.980;2024-01-30T08:52:29;5.00;99.90
5429;DHT22;2737;52.386;9.980;2024-01-30T08:54:56;5.10;99.90
5429;DHT22;2737;52.386;9.980;2024-01-30T08:57:25;5.10;99.90
5429;DHT22;2737;52.386;9.980;2024-01-30T08:59:54;5.20;99.90
5429;DHT22;2737;52.386;9.980;2024-01-30T09:02:21;5.40;99.90
5429;DHT22;2737;52.386;9.980;2024-01-30T09:04:48;5.40;99.90
5429;DHT22;2737;52.386;9.980;2024-01-30T09:07:15;5.50;99.90
5429;DHT22;2737;52.386;9.980;2024-01-30T09:09:42;5.60;99.90
5429;DHT22;2737;52.386;9.980;2024-01-30T09:12:09;5.80;99.90
5429;DHT22;2737;52.386;9.980;2024-01-30T09:14:39;5.90;99.90
5429;DHT22;2737;52.386;9.980;2024-01-30T09:17:06;6.10;99.90
5429;DHT22;2737;52.386;9.980;2024-01-30T09:19:33;6.10;99.90
5429;DHT22;2737;52.386;9.980;2024-01-30T09:22:00;6.20;99.90
5429;DHT22;2737;52.386;9.980;2024-01-30T09:24:28;6.20;99.90
5429;DHT22;2737;52.386;9.980;2024-01-30T09:26:55;6.20;99.90
5429;DHT22;2737;52.386;9.980;2024-01-30T09:29:22;6.30;99.90
5429;DHT22;2737;52.386;9.980;2024-01-30T09:31:51;6.40;99.90
5429;DHT22;2737;52.386;9.980;2024-01-30T09:34:18;6.40;99.90
5429;DHT22;2737;52.386;9.980;2024-01-30T09:36:45;6.40;99.90
5429;DHT22;2737;52.386;9.980;2024-01-30T09:39:12;6.40;99.90
5429;DHT22;2737;52.386;9.980;2024-01-30T09:41:45;6.40;99.90
5429;DHT22;2737;52.386;9.980;2024-01-30T09:44:13;6.40;99.90
5429;DHT22;2737;52.386;9.980;2024-01-30T09:46:43;6.40;99.90
5429;DHT22;2737;52.386;9.980;2024-01-30T09:49:13;6.50;99.90
5429;DHT22;2737;52.386;9.980;2024-01-30T09:51:40;6.50;99.90
5429;DHT22;2737;52.386;9.980;2024-01-30T09:54:08;6.50;99.90
5429;DHT22;2737;52.386;9.980;2024-01-30T09:56:36;6.60;99.90
5429;DHT22;2737;52.386;9.980;2024-01-30T09:59:03;6.60;99.90
5429;DHT22;2737;52.386;9.980;2024-01-30T10:01:31;6.60;99.90
5429;DHT22;2737;52.386;9.980;2024-01-30T10:03:58;6.70;99.90
5429;DHT22;2737;52.386;9.980;2024-01-30T10:06:26;6.70;99.90
5429;DHT22;2737;52.386;9.980;2024-01-30T10:08:54;6.70;99.90
5429;DHT22;2737;52.386;9.980;2024-01-30T10:11:21;6.80;99.90
5429;DHT22;2737;52.386;9.980;2024-01-30T10:13:49;6.90;99.90
5429;DHT22;2737;52.386;9.980;2024-01-30T10:16:16;6.90;99.90
5429;DHT22;2737;52.386;9.980;2024-01-30T10:18:43;6.90;99.90
5429;DHT22;2737;52.386;9.980;2024-01-30T10:21:10;6.90;99.90
5429;DHT22;2737;52.386;9.980;2024-01-30T10:23:39;7.00;99.90
5429;DHT22;2737;52.386;9.980;2024-01-30T10:26:07;7.00;99.90
5429;DHT22;2737;52.386;9.980;2024-01-30T10:28:34;7.10;99.90
5429;DHT22;2737;52.386;9.980;2024-01-30T10:31:02;7.20;99.90
5429;DHT22;2737;52.386;9.980;2024-01-30T10:33:30;7.20;99.90
5429;DHT22;2737;52.386;9.980;2024-01-30T10:36:00;7.20;99.90
5429;DHT22;2737;52.386;9.980;2024-01-30T10:38:29;7.30;99.90
5429;DHT22;2737;52.386;9.980;2024-01-30T10:40:58;7.40;99.90
5429;DHT22;2737;52.386;9.980;2024-01-30T10:43:31;7.40;99.90
5429;DHT22;2737;52.386;9.980;2024-01-30T10:46:06;7.50;99.90
5429;DHT22;2737;52.386;9.980;2024-01-30T10:48:41;7.60;99.90
5429;DHT22;2737;52.386;9.980;2024-01-30T10:51:11;7.70;99.90
5429;DHT22;2737;52.386;9.980;2024-01-30T10:53:39;7.80;99.90
5429;DHT22;2737;52.386;9.980;2024-01-30T10:56:08;7.80;99.90
5429;DHT22;2737;52.386;9.980;2024-01-30T10:58:37;7.90;99.90
5429;DHT22;2737;52.386;9.980;2024-01-30T11:01:05;7.90;99.90
5429;DHT22;2737;52.386;9.980;2024-01-30T11:03:34;8.00;99.90
5429;DHT22;2737;52.386;9.980;2024-01-30T11:06:02;8.10;99.90
5429;DHT22;2737;52.386;9.980;2024-01-30T11:08:32;8.30;99.90
5429;DHT22;2737;52.386;9.980;2024-01-30T11:10:59;8.30;99.90
5429;DHT22;2737;52.386;9.980;2024-01-30T11:13:31;8.30;99.90
5429;DHT22;2737;52.386;9.980;2024-01-30T11:16:00;8.30;99.90
5429;DHT22;2737;52.386;9.980;2024-01-30T11:18:30;8.40;99.90
5429;DHT22;2737;52.386;9.980;2024-01-30T11:20:57;8.50;99.90
5429;DHT22;2737;52.386;9.980;2024-01-30T11:23:27;8.50;99.90
5429;DHT22;2737;52.386;9.980;2024-01-30T11:25:54;8.50;99.90
5429;DHT22;2737;52.386;9.980;2024-01-30T11:28:22;8.50;99.90
5429;DHT22;2737;52.386;9.980;2024-01-30T11:30:50;8.60;99.90
5429;DHT22;2737;52.386;9.980;2024-01-30T11:33:27;8.60;99.90
5429;DHT22;2737;52.386;9.980;2024-01-30T11:35:57;8.60;99.90
5429;DHT22;2737;52.386;9.980;2024-01-30T11:38:26;8.60;99.90
5429;DHT22;2737;52.386;9.980;2024-01-30T11:40:55;8.60;99.90
5429;DHT22;2737;52.386;9.980;2024-01-30T11:43:22;8.60;99.90
5429;DHT22;2737;52.386;9.980;2024-01-30T11:45:51;8.70;99.90
5429;DHT22;2737;52.386;9.980;2024-01-30T11:48:18;8.70;99.90
5429;DHT22;2737;52.386;9.980;2024-01-30T11:50:46;8.80;99.90
5429;DHT22;2737;52.386;9.980;2024-01-30T11:53:13;8.80;99.90
5429;DHT22;2737;52.386;9.980;2024-01-30T11:55:40;8.90;99.90
5429;DHT22;2737;52.386;9.980;2024-01-30T11:58:08;9.00;99.90
5429;DHT22;2737;52.386;9.980;2024-01-30T12:00:35;9.00;99.90
5429;DHT22;2737;52.386;9.980;2024-01-30T12:03:04;9.10;99.90
5429;DHT22;2737;52.386;9.980;2024-01-30T12:05:32;9.20;99.90
5429;DHT22;2737;52.386;9.980;2024-01-30T12:07:59;9.10;99.90
5429;DHT22;2737;52.386;9.980;2024-01-30T12:10:26;9.20;99.90
5429;DHT22;2737;52.386;9.980;2024-01-30T12:12:54;9.20;99.90
5429;DHT22;2737;52.386;9.980;2024-01-30T12:15:22;9.30;99.90
5429;DHT22;2737;52.386;9.980;2024-01-30T12:17:49;9.30;99.90
5429;DHT22;2737;52.386;9.980;2024-01-30T12:20:19;9.40;99.90
5429;DHT22;2737;52.386;9.980;2024-01-30T12:22:47;9.40;99.90
5429;DHT22;2737;52.386;9.980;2024-01-30T12:25:15;9.50;99.90
5429;DHT22;2737;52.386;9.980;2024-01-30T12:27:43;9.60;99.90
5429;DHT22;2737;52.386;9.980;2024-01-30T12:30:12;9.60;99.90
5429;DHT22;2737;52.386;9.980;2024-01-30T12:32:40;9.60;99.90
5429;DHT22;2737;52.386;9.980;2024-01-30T12:35:09;9.70;99.90
5429;DHT22;2737;52.386;9.980;2024-01-30T12:37:38;9.70;99.90
5429;DHT22;2737;52.386;9.980;2024-01-30T12:40:07;9.70;99.90
5429;DHT22;2737;52.386;9.980;2024-01-30T12:42:35;9.70;99.90
5429;DHT22;2737;52.386;9.980;2024-01-30T12:45:02;9.90;99.90
5429;DHT22;2737;52.386;9.980;2024-01-30T12:47:30;9.90;99.90
5429;DHT22;2737;52.386;9.980;2024-01-30T12:49:57;9.90;99.90
5429;DHT22;2737;52.386;9.980;2024-01-30T12:52:24;9.90;99.90
5429;DHT22;2737;52.386;9.980;2024-01-30T12:54:53;10.00;99.90
5429;DHT22;2737;52.386;9.980;2024-01-30T12:57:20;10.00;99.90
5429;DHT22;2737;52.386;9.980;2024-01-30T12:59:47;9.90;99.90
5429;DHT22;2737;52.386;9.980;2024-01-30T13:02:15;9.90;99.90
5429;DHT22;2737;52.386;9.980;2024-01-30T13:04:43;9.90;99.90
5429;DHT22;2737;52.386;9.980;2024-01-30T13:07:10;9.90;99.90
5429;DHT22;2737;52.386;9.980;2024-01-30T13:09:37;9.90;99.90
5429;DHT22;2737;52.386;9.980;2024-01-30T13:12:08;9.90;99.90
5429;DHT22;2737;52.386;9.980;2024-01-30T13:14:35;9.90;99.90
5429;DHT22;2737;52.386;9.980;2024-01-30T13:17:02;10.00;99.90
5429;DHT22;2737;52.386;9.980;2024-01-30T13:19:29;9.90;99.90
5429;DHT22;2737;52.386;9.980;2024-01-30T13:21:56;9.90;99.90
5429;DHT22;2737;52.386;9.980;2024-01-30T13:24:23;9.90;99.90
5429;DHT22;2737;52.386;9.980;2024-01-30T13:26:50;9.90;99.90
5429;DHT22;2737;52.386;9.980;2024-01-30T13:29:19;9.90;99.90
5429;DHT22;2737;52.386;9.980;2024-01-30T13:31:46;9.80;99.90
5429;DHT22;2737;52.386;9.980;2024-01-30T13:34:13;9.80;99.90
5429;DHT22;2737;52.386;9.980;2024-01-30T13:36:40;9.80;99.90
5429;DHT22;2737;52.386;9.980;2024-01-30T13:39:07;9.80;99.90
5429;DHT22;2737;52.386;9.980;2024-01-30T13:41:36;9.80;99.90
5429;DHT22;2737;52.386;9.980;2024-01-30T13:44:04;9.80;99.90
5429;DHT22;2737;52.386;9.980;2024-01-30T13:46:32;9.80;99.90
5429;DHT22;2737;52.386;9.980;2024-01-30T13:48:59;9.80;99.90
5429;DHT22;2737;52.386;9.980;2024-01-30T13:51:25;9.80;99.90
5429;DHT22;2737;52.386;9.980;2024-01-30T13:53:52;9.80;99.90
5429;DHT22;2737;52.386;9.980;2024-01-30T13:56:19;9.80;99.90
5429;DHT22;2737;52.386;9.980;2024-01-30T13:58:48;9.90;99.90
5429;DHT22;2737;52.386;9.980;2024-01-30T14:01:15;9.80;99.90
5429;DHT22;2737;52.386;9.980;2024-01-30T14:03:44;9.80;99.90
5429;DHT22;2737;52.386;9.980;2024-01-30T14:06:11;9.80;99.90
5429;DHT22;2737;52.386;9.980;2024-01-30T14:08:38;9.70;99.90
5429;DHT22;2737;52.386;9.980;2024-01-30T14:11:05;9.70;99.90
5429;DHT22;2737;52.386;9.980;2024-01-30T14:13:32;9.80;99.90
5429;DHT22;2737;52.386;9.980;2024-01-30T14:16:00;9.80;99.90
5429;DHT22;2737;52.386;9.980;2024-01-30T14:18:27;9.80;99.90
5429;DHT22;2737;52.386;9.980;2024-01-30T14:20:55;9.80;99.90
5429;DHT22;2737;52.386;9.980;2024-01-30T14:23:23;9.80;99.90
5429;DHT22;2737;52.386;9.980;2024-01-30T14:25:50;9.80;99.90
5429;DHT22;2737;52.386;9.980;2024-01-30T14:28:18;9.80;99.90
5429;DHT22;2737;52.386;9.980;2024-01-30T14:30:45;9.80;99.90
5429;DHT22;2737;52.386;9.980;2024-01-30T14:33:12;9.70;99.90
5429;DHT22;2737;52.386;9.980;2024-01-30T14:35:39;9.70;99.90
5429;DHT22;2737;52.386;9.980;2024-01-30T14:38:08;9.80;99.90
5429;DHT22;2737;52.386;9.980;2024-01-30T14:40:35;9.80;99.90
5429;DHT22;2737;52.386;9.980;2024-01-30T14:43:02;9.80;99.90
5429;DHT22;2737;52.386;9.980;2024-01-30T14:45:29;9.80;99.90
5429;DHT22;2737;52.386;9.980;2024-01-30T14:47:57;9.80;99.90
5429;DHT22;2737;52.386;9.980;2024-01-30T14:50:25;9.80;99.90
5429;DHT22;2737;52.386;9.980;2024-01-30T14:52:52;9.70;99.90
5429;DHT22;2737;52.386;9.980;2024-01-30T14:55:21;9.80;99.90
5429;DHT22;2737;52.386;9.980;2024-01-30T14:57:48;10.20;99.90
5429;DHT22;2737;52.386;9.980;2024-01-30T15:00:16;9.60;99.90
5429;DHT22;2737;52.386;9.980;2024-01-30T15:02:44;9.60;99.90
5429;DHT22;2737;52.386;9.980;2024-01-30T15:05:12;9.60;99.90
5429;DHT22;2737;52.386;9.980;2024-01-30T15:07:39;9.60;99.90
5429;DHT22;2737;52.386;9.980;2024-01-30T15:10:07;9.60;99.90
5429;DHT22;2737;52.386;9.980;2024-01-30T15:12:36;9.60;99.90
5429;DHT22;2737;52.386;9.980;2024-01-30T15:15:04;9.60;99.90
5429;DHT22;2737;52.386;9.980;2024-01-30T15:17:32;9.60;99.90
5429;DHT22;2737;52.386;9.980;2024-01-30T15:19:59;9.60;99.90
5429;DHT22;2737;52.386;9.980;2024-01-30T15:22:27;9.60;99.90
5429;DHT22;2737;52.386;9.980;2024-01-30T15:24:54;9.60;99.90
5429;DHT22;2737;52.386;9.980;2024-01-30T15:27:23;9.60;99.90
5429;DHT22;2737;52.386;9.980;2024-01-30T15:29:52;9.60;99.90
5429;DHT22;2737;52.386;9.980;2024-01-30T15:32:19;9.60;99.90
5429;DHT22;2737;52.386;9.980;2024-01-30T15:34:46;9.60;99.90
5429;DHT22;2737;52.386;9.980;2024-01-30T15:37:13;9.70;99.90
5429;DHT22;2737;52.386;9.980;2024-01-30T15:39:40;9.70;99.90
5429;DHT22;2737;52.386;9.980;2024-01-30T15:42:07;9.70;99.90
5429;DHT22;2737;52.386;9.980;2024-01-30T15:44:34;9.60;99.90
5429;DHT22;2737;52.386;9.980;2024-01-30T15:47:03;9.70;99.90
5429;DHT22;2737;52.386;9.980;2024-01-30T15:49:30;9.60;99.90
5429;DHT22;2737;52.386;9.980;2024-01-30T15:51:57;9.60;99.90
5429;DHT22;2737;52.386;9.980;2024-01-30T15:54:24;9.60;99.90
5429;DHT22;2737;52.386;9.980;2024-01-30T15:56:51;9.60;99.90
5429;DHT22;2737;52.386;9.980;2024-01-30T15:59:18;9.60;99.90
5429;DHT22;2737;52.386;9.980;2024-01-30T16:01:45;9.60;99.90
5429;DHT22;2737;52.386;9.980;2024-01-30T16:04:16;9.50;99.90
5429;DHT22;2737;52.386;9.980;2024-01-30T16:06:43;9.50;99.90
5429;DHT22;2737;52.386;9.980;2024-01-30T16:09:10;9.50;99.90
5429;DHT22;2737;52.386;9.980;2024-01-30T16:11:37;9.50;99.90
5429;DHT22;2737;52.386;9.980;2024-01-30T16:14:04;9.50;99.90
5429;DHT22;2737;52.386;9.980;2024-01-30T16:16:32;9.50;99.90
5429;DHT22;2737;52.386;9.980;2024-01-30T16:18:59;9.50;99.90